createdAt,value
2023-04-05T00:00:42.790Z,69.60
2023-04-05T00:02:03.647Z,69.50
2023-04-05T00:03:24.749Z,69.50
2023-04-05T00:04:45.974Z,69.80
2023-04-05T00:06:07.402Z,70.20
2023-04-05T00:07:27.638Z,70.60
2023-04-05T00:08:48.170Z,70.50
2023-04-05T00:10:09.531Z,70.60
2023-04-05T00:11:31.365Z,70.60
2023-04-05T00:12:53.475Z,70.60
2023-04-05T00:14:14.303Z,70.50
2023-04-05T00:15:34.935Z,70.60
2023-04-05T00:16:55.567Z,70.90
2023-04-05T00:18:16.314Z,71.00
2023-04-05T00:19:36.929Z,71.00
2023-04-05T00:20:57.565Z,70.80
2023-04-05T00:22:18.067Z,71.00
2023-04-05T00:23:38.868Z,70.80
2023-04-05T00:24:59.265Z,70.70
2023-04-05T00:26:20.683Z,70.80
2023-04-05T00:27:43.735Z,70.60
2023-04-05T00:29:06.116Z,70.90
2023-04-05T00:30:26.747Z,70.90
2023-04-05T00:31:47.274Z,71.00
2023-04-05T00:33:08.027Z,70.70
2023-04-05T00:34:28.493Z,71.10
2023-04-05T00:35:56.371Z,70.70
2023-04-05T00:37:17.249Z,70.60
2023-04-05T00:38:38.455Z,70.80
2023-04-05T00:39:59.064Z,70.80
2023-04-05T00:41:19.849Z,71.10
2023-04-05T00:42:40.147Z,71.40
2023-04-05T00:44:00.683Z,71.60
2023-04-05T00:45:25.710Z,71.70
2023-04-05T00:46:49.265Z,72.10
2023-04-05T00:48:09.923Z,71.90
2023-04-05T00:49:30.749Z,71.70
2023-04-05T00:50:52.239Z,72.30
2023-04-05T00:52:12.695Z,72.20
2023-04-05T00:53:36.297Z,72.40
2023-04-05T00:54:57.068Z,72.80
2023-04-05T00:56:17.972Z,73.00
2023-04-05T00:57:38.995Z,72.80
2023-04-05T00:59:00.606Z,72.90
2023-04-05T01:00:22.847Z,72.70
2023-04-05T01:01:43.536Z,72.30
2023-04-05T01:03:05.437Z,72.20
2023-04-05T01:04:27.206Z,72.30
2023-04-05T01:05:47.885Z,72.30
2023-04-05T01:07:13.873Z,72.20
2023-04-05T01:08:55.530Z,72.20
2023-04-05T01:10:17.366Z,71.90
2023-04-05T01:11:39.767Z,71.90
2023-04-05T01:13:02.932Z,72.10
2023-04-05T01:14:23.473Z,72.10
2023-04-05T01:15:45.284Z,72.10
2023-04-05T01:17:05.912Z,72.10
2023-04-05T01:18:27.815Z,72.10
2023-04-05T01:19:49.024Z,72.10
2023-04-05T01:21:24.791Z,72.30
2023-04-05T01:23:13.368Z,72.20
2023-04-05T01:24:39.686Z,71.90
2023-04-05T01:26:51.986Z,72.00
2023-04-05T01:28:35.211Z,72.40
2023-04-05T01:30:03.358Z,72.30
2023-04-05T01:31:29.658Z,72.70
2023-04-05T01:32:56.239Z,72.50
2023-04-05T01:34:23.085Z,72.50
2023-04-05T01:35:51.206Z,72.70
2023-04-05T01:37:13.290Z,72.30
2023-04-05T01:38:37.345Z,72.40
2023-04-05T01:39:58.013Z,72.60
2023-04-05T01:41:18.797Z,72.90
2023-04-05T01:42:46.088Z,72.60
2023-04-05T01:44:06.607Z,72.60
2023-04-05T01:45:28.327Z,72.60
2023-04-05T01:46:48.992Z,73.00
2023-04-05T01:48:09.688Z,73.50
2023-04-05T01:49:32.977Z,74.30
2023-04-05T01:50:53.506Z,73.90
2023-04-05T01:52:14.249Z,74.10
2023-04-05T01:53:34.535Z,74.40
2023-04-05T01:54:57.852Z,74.30
2023-04-05T01:56:18.614Z,74.40
2023-04-05T01:57:39.324Z,74.60
2023-04-05T01:59:02.581Z,74.50
2023-04-05T02:00:23.171Z,74.30
2023-04-05T02:01:45.301Z,74.00
2023-04-05T02:03:05.766Z,73.80
2023-04-05T02:04:26.216Z,73.80
2023-04-05T02:05:46.673Z,73.80
2023-04-05T02:07:07.622Z,73.90
2023-04-05T02:08:28.371Z,73.70
2023-04-05T02:09:49.051Z,73.60
2023-04-05T02:11:09.436Z,73.80
2023-04-05T02:12:29.690Z,73.70
2023-04-05T02:13:50.224Z,73.80
2023-04-05T02:15:11.244Z,73.80
2023-04-05T02:16:31.657Z,73.90
2023-04-05T02:17:53.718Z,73.80
2023-04-05T02:19:14.358Z,74.00
2023-04-05T02:20:34.789Z,74.00
2023-04-05T02:21:55.390Z,74.10
2023-04-05T02:23:15.878Z,74.10
2023-04-05T02:24:36.474Z,74.10
2023-04-05T02:25:57.181Z,74.30
2023-04-05T02:27:17.743Z,74.40
2023-04-05T02:28:40.964Z,74.20
2023-04-05T02:30:01.627Z,74.40
2023-04-05T02:31:22.225Z,74.30
2023-04-05T02:32:43.077Z,74.10
2023-04-05T02:34:04.991Z,74.10
2023-04-05T02:35:25.607Z,74.10
2023-04-05T02:36:46.533Z,74.10
2023-04-05T02:38:07.379Z,74.10
2023-04-05T02:39:29.120Z,74.20
2023-04-05T02:40:54.854Z,74.50
2023-04-05T02:42:15.316Z,74.50
2023-04-05T02:43:41.376Z,74.40
2023-04-05T02:45:01.900Z,74.30
2023-04-05T02:46:22.462Z,74.30
2023-04-05T02:47:42.990Z,74.60
2023-04-05T02:49:05.532Z,74.50
2023-04-05T02:50:26.218Z,74.60
2023-04-05T02:51:46.859Z,74.60
2023-04-05T02:53:07.535Z,74.90
2023-04-05T02:54:28.098Z,75.00
2023-04-05T02:55:52.391Z,74.80
2023-04-05T02:57:15.263Z,74.90
2023-04-05T02:58:35.584Z,74.80
2023-04-05T02:59:55.873Z,75.00
2023-04-05T03:01:18.372Z,74.90
2023-04-05T03:02:39.030Z,75.00
2023-04-05T03:03:59.876Z,75.10
2023-04-05T03:05:22.075Z,75.10
2023-04-05T03:06:43.105Z,75.00
2023-04-05T03:08:04.090Z,74.90
2023-04-05T03:09:27.066Z,74.70
2023-04-05T03:10:55.108Z,74.90
2023-04-05T03:12:15.770Z,74.80
2023-04-05T03:13:36.671Z,74.70
2023-04-05T03:14:57.180Z,74.60
2023-04-05T03:16:17.936Z,74.50
2023-04-05T03:17:38.496Z,74.90
2023-04-05T03:18:59.270Z,75.10
2023-04-05T03:20:21.192Z,75.10
2023-04-05T03:21:41.782Z,74.90
2023-04-05T03:23:02.207Z,75.20
2023-04-05T03:24:22.962Z,75.10
2023-04-05T03:25:43.477Z,75.00
2023-04-05T03:27:04.349Z,74.90
2023-04-05T03:28:25.642Z,75.20
2023-04-05T03:29:46.333Z,75.20
2023-04-05T03:31:07.039Z,75.90
2023-04-05T03:32:27.538Z,76.40
2023-04-05T03:33:48.147Z,76.40
2023-04-05T03:35:09.410Z,76.30
2023-04-05T03:36:31.314Z,76.20
2023-04-05T03:37:51.632Z,76.10
2023-04-05T03:39:15.419Z,76.10
2023-04-05T03:40:35.923Z,76.10
2023-04-05T03:41:56.597Z,76.20
2023-04-05T03:43:16.928Z,76.10
2023-04-05T03:44:37.509Z,76.00
2023-04-05T03:45:57.752Z,76.00
2023-04-05T03:47:18.389Z,76.00
2023-04-05T03:48:39.021Z,76.10
2023-04-05T03:49:59.729Z,76.00
2023-04-05T03:51:20.399Z,75.70
2023-04-05T03:52:42.080Z,75.80
2023-04-05T03:54:02.516Z,75.80
2023-04-05T03:55:23.201Z,75.80
2023-04-05T03:56:43.999Z,75.60
2023-04-05T03:58:05.005Z,75.70
2023-04-05T03:59:25.498Z,75.80
2023-04-05T04:00:46.375Z,76.20
2023-04-05T04:02:06.820Z,76.20
2023-04-05T04:03:27.727Z,76.20
2023-04-05T04:04:50.624Z,76.20
2023-04-05T04:06:11.429Z,76.10
2023-04-05T04:07:31.703Z,76.20
2023-04-05T04:08:53.628Z,76.30
2023-04-05T04:10:15.649Z,76.30
2023-04-05T04:11:36.148Z,76.30
2023-04-05T04:12:56.724Z,76.30
2023-04-05T04:14:17.200Z,76.10
2023-04-05T04:15:37.743Z,76.10
2023-04-05T04:17:01.689Z,76.10
2023-04-05T04:18:22.343Z,76.00
2023-04-05T04:19:43.171Z,76.10
2023-04-05T04:21:04.131Z,76.20
2023-04-05T04:22:25.411Z,76.20
2023-04-05T04:23:45.594Z,76.40
2023-04-05T04:25:09.196Z,76.40
2023-04-05T04:26:30.192Z,76.40
2023-04-05T04:27:50.916Z,76.40
2023-04-05T04:29:11.804Z,76.30
2023-04-05T04:30:32.234Z,76.40
2023-04-05T04:31:53.190Z,76.60
2023-04-05T04:33:13.811Z,76.50
2023-04-05T04:34:34.496Z,76.40
2023-04-05T04:35:55.497Z,76.40
2023-04-05T04:37:16.246Z,76.20
2023-04-05T04:38:38.511Z,76.20
2023-04-05T04:39:59.083Z,76.20
2023-04-05T04:41:21.011Z,76.40
2023-04-05T04:42:41.559Z,76.40
2023-04-05T04:44:02.125Z,76.40
2023-04-05T04:45:22.898Z,76.40
2023-04-05T04:46:43.667Z,76.50
2023-04-05T04:48:04.915Z,76.70
2023-04-05T04:49:25.533Z,76.70
2023-04-05T04:50:46.743Z,76.70
2023-04-05T04:52:07.243Z,76.70
2023-04-05T04:53:28.002Z,76.80
2023-04-05T04:54:50.024Z,76.80
2023-04-05T04:56:10.983Z,76.80
2023-04-05T04:57:32.602Z,76.80
2023-04-05T04:58:54.939Z,76.70
2023-04-05T05:00:15.735Z,76.60
2023-04-05T05:01:36.651Z,76.60
2023-04-05T05:02:57.244Z,76.60
2023-04-05T05:04:18.080Z,76.70
2023-04-05T05:05:42.705Z,76.70
2023-04-05T05:07:03.582Z,76.60
2023-04-05T05:08:23.964Z,76.50
2023-04-05T05:09:44.719Z,76.50
2023-04-05T05:11:07.525Z,76.60
2023-04-05T05:12:28.152Z,76.90
2023-04-05T05:13:53.162Z,76.90
2023-04-05T05:15:14.418Z,76.90
2023-04-05T05:16:35.215Z,77.00
2023-04-05T05:17:55.556Z,77.00
2023-04-05T05:19:15.731Z,77.00
2023-04-05T05:20:36.703Z,77.00
2023-04-05T05:21:57.418Z,77.10
2023-04-05T05:23:18.137Z,77.20
2023-04-05T05:24:38.755Z,77.20
2023-04-05T05:25:59.535Z,77.30
2023-04-05T05:27:22.306Z,77.30
2023-04-05T05:28:42.999Z,77.20
2023-04-05T05:30:05.687Z,77.10
2023-04-05T05:31:26.251Z,77.20
2023-04-05T05:32:47.196Z,77.30
2023-04-05T05:34:07.939Z,77.10
2023-04-05T05:35:28.447Z,77.30
2023-04-05T05:36:48.969Z,77.40
2023-04-05T05:38:11.323Z,77.50
2023-04-05T05:39:33.504Z,77.30
2023-04-05T05:40:57.346Z,77.50
2023-04-05T05:42:17.727Z,77.50
2023-04-05T05:43:38.072Z,77.40
2023-04-05T05:45:02.200Z,77.50
2023-04-05T05:46:24.612Z,77.50
2023-04-05T05:47:45.591Z,77.40
2023-04-05T05:49:05.970Z,77.30
2023-04-05T05:50:26.453Z,77.40
2023-04-05T05:51:47.082Z,77.20
2023-04-05T05:53:08.009Z,77.10
2023-04-05T05:54:28.823Z,77.30
2023-04-05T05:55:49.555Z,77.30
2023-04-05T05:57:09.876Z,77.30
2023-04-05T05:58:30.389Z,77.30
2023-04-05T05:59:50.830Z,77.00
2023-04-05T06:01:11.565Z,77.20
2023-04-05T06:02:33.667Z,77.20
2023-04-05T06:03:54.751Z,77.40
2023-04-05T06:05:15.462Z,77.50
2023-04-05T06:06:37.686Z,77.50
2023-04-05T06:07:58.512Z,77.50
2023-04-05T06:09:19.191Z,77.50
2023-04-05T06:10:39.859Z,77.40
2023-04-05T06:12:00.619Z,77.40
2023-04-05T06:13:21.266Z,77.20
2023-04-05T06:14:41.907Z,77.00
2023-04-05T06:16:02.620Z,77.10
2023-04-05T06:17:23.920Z,77.10
2023-04-05T06:18:45.707Z,77.20
2023-04-05T06:20:07.723Z,77.00
2023-04-05T06:21:28.056Z,76.80
2023-04-05T06:22:48.828Z,76.90
2023-04-05T06:24:09.653Z,76.50
2023-04-05T06:25:30.282Z,76.60
2023-04-05T06:26:51.323Z,76.70
2023-04-05T06:28:11.679Z,76.70
2023-04-05T06:29:32.385Z,76.30
2023-04-05T06:30:53.884Z,76.10
2023-04-05T06:32:14.625Z,76.20
2023-04-05T06:33:35.150Z,76.20
2023-04-05T06:34:56.821Z,76.00
2023-04-05T06:36:16.914Z,75.90
2023-04-05T06:37:37.185Z,75.90
2023-04-05T06:38:57.598Z,75.70
2023-04-05T06:40:18.677Z,75.70
2023-04-05T06:41:39.129Z,75.80
2023-04-05T06:42:59.826Z,75.80
2023-04-05T06:44:20.435Z,75.50
2023-04-05T06:45:40.851Z,75.20
2023-04-05T06:47:01.162Z,74.90
2023-04-05T06:48:21.598Z,74.60
2023-04-05T06:49:42.096Z,74.40
2023-04-05T06:51:04.639Z,74.50
2023-04-05T06:52:25.253Z,74.60
2023-04-05T06:53:45.730Z,74.40
2023-04-05T06:55:07.570Z,74.20
2023-04-05T06:56:28.265Z,73.80
2023-04-05T06:57:49.062Z,73.90
2023-04-05T06:59:09.738Z,74.20
2023-04-05T07:00:30.555Z,74.30
2023-04-05T07:01:51.178Z,74.10
2023-04-05T07:03:11.523Z,73.80
2023-04-05T07:04:32.111Z,73.40
2023-04-05T07:05:53.347Z,73.70
2023-04-05T07:07:15.234Z,73.50
2023-04-05T07:08:35.837Z,73.50
2023-04-05T07:09:56.406Z,73.20
2023-04-05T07:11:16.996Z,73.40
2023-04-05T07:12:37.748Z,73.30
2023-04-05T07:13:58.500Z,73.60
2023-04-05T07:15:19.183Z,74.00
2023-04-05T07:16:39.637Z,73.30
2023-04-05T07:18:00.590Z,73.20
2023-04-05T07:19:20.929Z,72.40
2023-04-05T07:20:41.365Z,72.00
2023-04-05T07:22:01.881Z,72.30
2023-04-05T07:23:24.003Z,72.10
2023-04-05T07:24:45.226Z,72.00
2023-04-05T07:26:06.096Z,73.10
2023-04-05T07:27:26.524Z,72.40
2023-04-05T07:28:47.087Z,71.80
2023-04-05T07:30:08.665Z,71.60
2023-04-05T07:31:29.465Z,72.70
2023-04-05T07:32:50.066Z,72.80
2023-04-05T07:34:10.701Z,72.50
2023-04-05T07:35:31.450Z,73.00
2023-04-05T07:36:52.151Z,72.00
2023-04-05T07:38:12.739Z,71.20
2023-04-05T07:39:34.739Z,70.50
2023-04-05T07:40:55.713Z,69.80
2023-04-05T07:42:16.107Z,69.60
2023-04-05T07:43:36.568Z,69.90
2023-04-05T07:44:57.162Z,69.50
2023-04-05T07:46:17.900Z,69.60
2023-04-05T07:47:38.587Z,69.00
2023-04-05T07:48:59.069Z,68.20
2023-04-05T07:50:19.620Z,67.40
2023-04-05T07:51:40.204Z,67.60
2023-04-05T07:53:01.188Z,67.20
2023-04-05T07:54:21.398Z,66.80
2023-04-05T07:55:43.230Z,67.20
2023-04-05T07:57:03.999Z,67.10
2023-04-05T07:58:25.208Z,66.20
2023-04-05T07:59:45.749Z,65.70
2023-04-05T08:01:06.376Z,66.70
2023-04-05T08:02:27.071Z,66.40
2023-04-05T08:03:47.709Z,66.10
2023-04-05T08:05:08.845Z,64.90
2023-04-05T08:06:29.278Z,64.90
2023-04-05T08:07:49.933Z,65.30
2023-04-05T08:09:10.956Z,64.80
2023-04-05T08:10:31.803Z,64.90
2023-04-05T08:11:53.523Z,63.20
2023-04-05T08:13:13.889Z,63.10
2023-04-05T08:14:34.572Z,62.90
2023-04-05T08:15:56.125Z,62.90
2023-04-05T08:17:16.471Z,63.10
2023-04-05T08:18:36.780Z,63.80
2023-04-05T08:19:57.288Z,64.00
2023-04-05T08:21:18.060Z,63.90
2023-04-05T08:22:38.700Z,62.70
2023-04-05T08:23:59.353Z,62.10
2023-04-05T08:25:20.053Z,61.60
2023-04-05T08:26:40.536Z,61.00
2023-04-05T08:28:02.236Z,61.30
2023-04-05T08:29:22.985Z,60.60
2023-04-05T08:30:43.883Z,60.20
2023-04-05T08:32:04.742Z,59.60
2023-04-05T08:33:25.681Z,58.10
2023-04-05T08:34:46.104Z,58.50
2023-04-05T08:36:07.431Z,58.10
2023-04-05T08:37:27.998Z,57.60
2023-04-05T08:38:48.823Z,59.50
2023-04-05T08:40:10.097Z,59.00
2023-04-05T08:41:34.138Z,58.00
2023-04-05T08:42:58.050Z,56.80
2023-04-05T08:44:22.554Z,56.20
2023-04-05T08:45:47.813Z,56.70
2023-04-05T08:47:09.007Z,55.20
2023-04-05T08:48:31.975Z,56.70
2023-04-05T08:49:52.759Z,59.30
2023-04-05T08:51:13.496Z,56.70
2023-04-05T08:52:34.354Z,56.20
2023-04-05T08:54:00.037Z,58.10
2023-04-05T08:55:20.855Z,57.40
2023-04-05T08:56:42.623Z,55.90
2023-04-05T08:58:07.851Z,55.60
2023-04-05T08:59:30.076Z,56.00
2023-04-05T09:00:51.324Z,56.50
2023-04-05T09:02:14.365Z,56.30
2023-04-05T09:03:36.616Z,56.20
2023-04-05T09:04:57.242Z,55.20
2023-04-05T09:06:18.096Z,56.30
2023-04-05T09:07:38.782Z,55.00
2023-04-05T09:08:59.431Z,56.70
2023-04-05T09:10:21.191Z,55.30
2023-04-05T09:11:43.303Z,54.90
2023-04-05T09:13:03.672Z,54.50
2023-04-05T09:14:24.263Z,51.80
2023-04-05T09:15:46.312Z,51.00
2023-04-05T09:17:06.996Z,52.20
2023-04-05T09:18:27.646Z,54.20
2023-04-05T09:19:48.214Z,53.50
2023-04-05T09:21:08.771Z,52.70
2023-04-05T09:22:29.419Z,53.80
2023-04-05T09:23:52.624Z,54.00
2023-04-05T09:25:13.460Z,50.20
2023-04-05T09:26:34.132Z,54.80
2023-04-05T09:27:55.238Z,53.50
2023-04-05T09:29:29.071Z,54.30
2023-04-05T09:30:50.932Z,52.70
2023-04-05T09:32:12.421Z,52.50
2023-04-05T09:33:32.810Z,51.60
2023-04-05T09:34:54.081Z,50.30
2023-04-05T09:36:14.800Z,49.90
2023-04-05T09:37:35.228Z,50.60
2023-04-05T09:39:05.800Z,50.30
2023-04-05T09:40:41.371Z,50.30
2023-04-05T09:42:06.146Z,50.70
2023-04-05T09:43:39.110Z,50.30
2023-04-05T09:45:00.658Z,53.00
2023-04-05T09:46:32.684Z,52.10
2023-04-05T09:47:57.664Z,53.80
2023-04-05T09:49:32.305Z,53.90
2023-04-05T09:51:12.480Z,51.70
2023-04-05T09:52:33.859Z,53.30
2023-04-05T09:53:58.139Z,53.20
2023-04-05T09:55:26.686Z,54.00
2023-04-05T09:56:54.735Z,53.10
2023-04-05T09:58:19.572Z,52.40
2023-04-05T09:59:40.066Z,53.40
2023-04-05T10:01:13.838Z,53.40
2023-04-05T10:02:39.516Z,53.20
2023-04-05T10:04:00.736Z,51.70
2023-04-05T10:05:24.627Z,51.90
2023-04-05T10:06:45.262Z,52.90
2023-04-05T10:08:06.018Z,52.00
2023-04-05T10:09:26.558Z,54.50
2023-04-05T10:10:47.886Z,53.10
2023-04-05T10:12:09.732Z,52.30
2023-04-05T10:13:30.140Z,53.50
2023-04-05T10:14:50.714Z,53.20
2023-04-05T10:16:13.780Z,51.70
2023-04-05T10:17:39.273Z,50.80
2023-04-05T10:18:59.791Z,50.60
2023-04-05T10:20:21.713Z,49.30
2023-04-05T10:21:43.530Z,51.00
2023-04-05T10:23:07.824Z,51.20
2023-04-05T10:24:34.450Z,50.70
2023-04-05T10:26:04.262Z,51.00
2023-04-05T10:27:30.708Z,49.40
2023-04-05T10:28:55.531Z,49.80
2023-04-05T10:30:16.708Z,52.10
2023-04-05T10:31:44.720Z,50.30
2023-04-05T10:33:13.841Z,50.40
2023-04-05T10:34:42.108Z,50.60
2023-04-05T10:36:07.205Z,49.60
2023-04-05T10:37:46.378Z,47.20
2023-04-05T10:39:12.691Z,48.40
2023-04-05T10:40:33.414Z,47.70
2023-04-05T10:41:55.651Z,48.10
2023-04-05T10:43:21.549Z,49.50
2023-04-05T10:44:43.862Z,48.80
2023-04-05T10:46:04.662Z,47.80
2023-04-05T10:47:26.199Z,48.50
2023-04-05T10:48:52.731Z,49.70
2023-04-05T10:50:17.764Z,47.10
2023-04-05T10:51:39.070Z,48.70
2023-04-05T10:52:59.929Z,48.30
2023-04-05T10:54:21.238Z,47.50
2023-04-05T10:55:42.280Z,50.40
2023-04-05T10:57:07.559Z,48.90
2023-04-05T10:58:29.490Z,49.90
2023-04-05T10:59:50.567Z,48.20
2023-04-05T11:01:12.872Z,47.90
2023-04-05T11:02:34.020Z,48.80
2023-04-05T11:03:56.190Z,48.10
2023-04-05T11:05:30.297Z,48.80
2023-04-05T11:07:11.426Z,48.90
2023-04-05T11:08:32.579Z,48.50
2023-04-05T11:09:56.490Z,45.00
2023-04-05T11:11:17.983Z,48.20
2023-04-05T11:12:53.152Z,47.10
2023-04-05T11:14:21.571Z,48.20
2023-04-05T11:15:41.903Z,48.50
2023-04-05T11:17:02.900Z,46.60
2023-04-05T11:18:23.425Z,44.80
2023-04-05T11:19:51.409Z,43.10
2023-04-05T11:21:12.038Z,43.50
2023-04-05T11:22:32.489Z,43.90
2023-04-05T11:24:04.090Z,43.50
2023-04-05T11:25:25.142Z,45.80
2023-04-05T11:26:55.535Z,47.50
2023-04-05T11:28:30.155Z,45.30
2023-04-05T11:29:50.722Z,44.90
2023-04-05T11:31:15.668Z,43.10
2023-04-05T11:32:40.321Z,43.70
2023-04-05T11:34:03.836Z,44.70
2023-04-05T11:35:25.713Z,43.90
2023-04-05T11:36:48.568Z,43.30
2023-04-05T11:38:09.257Z,42.60
2023-04-05T11:39:30.145Z,43.80
2023-04-05T11:40:51.214Z,42.50
2023-04-05T11:42:12.075Z,44.70
2023-04-05T11:43:33.474Z,43.80
2023-04-05T11:44:54.027Z,41.90
2023-04-05T11:46:14.955Z,44.70
2023-04-05T11:47:37.570Z,45.30
2023-04-05T11:48:58.109Z,44.50
2023-04-05T11:50:20.971Z,41.50
2023-04-05T11:51:43.367Z,40.90
2023-04-05T11:53:11.053Z,41.20
2023-04-05T11:54:31.855Z,40.20
2023-04-05T11:55:52.637Z,40.50
2023-04-05T11:57:14.621Z,41.90
2023-04-05T11:58:35.062Z,42.70
2023-04-05T11:59:55.655Z,41.10
2023-04-05T12:01:15.803Z,43.30
2023-04-05T12:02:36.435Z,42.00
2023-04-05T12:03:57.866Z,43.30
2023-04-05T12:05:18.953Z,40.10
2023-04-05T12:06:39.514Z,39.30
2023-04-05T12:08:01.769Z,41.10
2023-04-05T12:09:22.205Z,41.30
2023-04-05T12:10:42.812Z,42.40
2023-04-05T12:12:03.775Z,41.80
2023-04-05T12:13:28.106Z,40.70
2023-04-05T12:14:48.641Z,41.20
2023-04-05T12:16:09.749Z,42.60
2023-04-05T12:17:41.068Z,41.60
2023-04-05T12:19:01.672Z,41.50
2023-04-05T12:20:23.212Z,44.50
2023-04-05T12:21:43.981Z,44.90
2023-04-05T12:23:05.987Z,43.70
2023-04-05T12:24:26.780Z,43.40
2023-04-05T12:25:47.635Z,42.30
2023-04-05T12:27:08.282Z,43.30
2023-04-05T12:28:50.143Z,41.20
2023-04-05T12:30:11.770Z,42.50
2023-04-05T12:31:36.070Z,42.30
2023-04-05T12:32:56.494Z,43.70
2023-04-05T12:34:24.081Z,42.80
2023-04-05T12:35:44.581Z,45.60
2023-04-05T12:37:05.426Z,45.30
2023-04-05T12:38:28.246Z,41.80
2023-04-05T12:39:49.509Z,43.10
2023-04-05T12:41:10.226Z,41.50
2023-04-05T12:42:33.038Z,44.20
2023-04-05T12:43:53.839Z,41.70
2023-04-05T12:45:14.662Z,41.60
2023-04-05T12:46:41.658Z,43.50
2023-04-05T12:48:02.304Z,44.90
2023-04-05T12:49:22.939Z,44.70
2023-04-05T12:50:44.867Z,43.60
2023-04-05T12:52:05.815Z,44.30
2023-04-05T12:53:28.182Z,44.80
2023-04-05T12:54:54.020Z,40.80
2023-04-05T12:56:15.897Z,43.20
2023-04-05T12:57:36.450Z,41.20
2023-04-05T12:58:56.963Z,40.30
2023-04-05T13:00:18.452Z,42.10
2023-04-05T13:01:39.279Z,42.60
2023-04-05T13:03:00.200Z,43.30
2023-04-05T13:04:21.000Z,40.50
2023-04-05T13:05:41.651Z,40.20
2023-04-05T13:07:02.625Z,38.70
2023-04-05T13:08:23.264Z,40.20
2023-04-05T13:09:45.545Z,38.90
2023-04-05T13:11:06.259Z,39.10
2023-04-05T13:12:26.995Z,38.50
2023-04-05T13:13:47.731Z,39.00
2023-04-05T13:15:09.389Z,39.70
2023-04-05T13:16:30.133Z,39.40
2023-04-05T13:17:50.755Z,38.80
2023-04-05T13:19:11.065Z,38.40
2023-04-05T13:20:32.258Z,40.20
2023-04-05T13:21:52.966Z,40.10
2023-04-05T13:23:13.756Z,41.50
2023-04-05T13:24:34.371Z,41.30
2023-04-05T13:25:59.402Z,40.60
2023-04-05T13:27:20.515Z,38.30
2023-04-05T13:28:41.215Z,37.80
2023-04-05T13:30:01.931Z,37.50
2023-04-05T13:31:22.736Z,41.90
2023-04-05T13:32:43.685Z,38.80
2023-04-05T13:34:04.793Z,40.70
2023-04-05T13:35:25.588Z,39.60
2023-04-05T13:36:46.314Z,37.60
2023-04-05T13:38:06.808Z,38.20
2023-04-05T13:39:27.475Z,37.80
2023-04-05T13:40:48.278Z,37.50
2023-04-05T13:42:10.251Z,37.80
2023-04-05T13:43:31.080Z,39.10
2023-04-05T13:44:51.575Z,40.30
2023-04-05T13:46:12.079Z,40.50
2023-04-05T13:47:32.523Z,38.80
2023-04-05T13:48:52.938Z,38.40
2023-04-05T13:50:13.599Z,38.40
2023-04-05T13:51:34.690Z,38.20
2023-04-05T13:52:55.462Z,38.60
2023-04-05T13:54:15.655Z,39.50
2023-04-05T13:55:36.221Z,39.20
2023-04-05T13:56:56.893Z,40.10
2023-04-05T13:58:18.947Z,42.60
2023-04-05T13:59:40.004Z,41.50
2023-04-05T14:01:00.734Z,41.10
2023-04-05T14:02:21.268Z,42.10
2023-04-05T14:03:41.848Z,41.20
2023-04-05T14:05:02.791Z,39.30
2023-04-05T14:06:23.557Z,36.80
2023-04-05T14:07:44.213Z,37.60
2023-04-05T14:09:04.900Z,37.40
2023-04-05T14:10:27.757Z,40.40
2023-04-05T14:11:48.543Z,38.90
2023-04-05T14:13:09.343Z,40.00
2023-04-05T14:14:31.058Z,40.00
2023-04-05T14:15:51.683Z,38.50
2023-04-05T14:17:12.345Z,41.90
2023-04-05T14:18:32.955Z,43.60
2023-04-05T14:19:53.658Z,42.00
2023-04-05T14:21:14.385Z,40.30
2023-04-05T14:22:34.793Z,39.90
2023-04-05T14:23:55.587Z,39.70
2023-04-05T14:25:16.316Z,40.50
2023-04-05T14:26:37.111Z,40.10
2023-04-05T14:27:57.798Z,40.70
2023-04-05T14:29:18.590Z,41.40
2023-04-05T14:30:40.880Z,41.40
2023-04-05T14:32:01.654Z,41.40
2023-04-05T14:33:22.311Z,40.60
2023-04-05T14:34:42.697Z,44.00
2023-04-05T14:36:03.963Z,41.30
2023-04-05T14:37:24.967Z,40.50
2023-04-05T14:38:45.527Z,39.60
2023-04-05T14:40:06.929Z,41.90
2023-04-05T14:41:27.537Z,40.70
2023-04-05T14:42:50.148Z,41.10
2023-04-05T14:44:10.914Z,39.70
2023-04-05T14:45:31.576Z,39.10
2023-04-05T14:46:53.601Z,41.20
2023-04-05T14:48:13.991Z,42.90
2023-04-05T14:49:34.648Z,45.50
2023-04-05T14:50:55.954Z,42.90
2023-04-05T14:52:16.660Z,42.70
2023-04-05T14:53:37.403Z,43.20
2023-04-05T14:54:58.043Z,41.90
2023-04-05T14:56:18.741Z,41.40
2023-04-05T14:57:39.613Z,43.60
2023-04-05T14:59:00.582Z,41.00
2023-04-05T15:00:21.466Z,40.90
2023-04-05T15:01:42.013Z,40.40
2023-04-05T15:03:04.402Z,41.60
2023-04-05T15:04:25.282Z,40.70
2023-04-05T15:05:46.492Z,42.10
2023-04-05T15:07:06.995Z,40.70
2023-04-05T15:08:27.833Z,40.30
2023-04-05T15:09:48.703Z,40.40
2023-04-05T15:11:09.384Z,41.60
2023-04-05T15:12:29.961Z,40.30
2023-04-05T15:13:50.866Z,39.70
2023-04-05T15:15:11.915Z,39.60
2023-04-05T15:16:32.362Z,39.50
2023-04-05T15:17:53.237Z,39.60
2023-04-05T15:19:15.368Z,41.80
2023-04-05T15:20:36.232Z,39.60
2023-04-05T15:21:56.923Z,39.50
2023-04-05T15:23:17.400Z,41.40
2023-04-05T15:24:38.073Z,39.30
2023-04-05T15:25:58.845Z,39.20
2023-04-05T15:27:19.623Z,39.10
2023-04-05T15:28:40.200Z,39.20
2023-04-05T15:30:01.099Z,39.20
2023-04-05T15:31:21.695Z,38.80
2023-04-05T15:32:42.295Z,39.20
2023-04-05T15:34:02.836Z,42.10
2023-04-05T15:35:25.110Z,40.40
2023-04-05T15:36:45.808Z,39.00
2023-04-05T15:38:06.480Z,38.90
2023-04-05T15:39:27.213Z,38.20
2023-04-05T15:40:48.030Z,38.90
2023-04-05T15:42:08.701Z,38.80
2023-04-05T15:43:30.786Z,38.60
2023-04-05T15:44:51.448Z,39.70
2023-04-05T15:46:12.082Z,39.10
2023-04-05T15:47:32.829Z,39.80
2023-04-05T15:48:53.701Z,38.60
2023-04-05T15:50:14.438Z,39.10
2023-04-05T15:51:37.001Z,39.40
2023-04-05T15:52:57.565Z,39.30
2023-04-05T15:54:18.322Z,38.70
2023-04-05T15:55:39.083Z,38.00
2023-04-05T15:56:59.910Z,37.20
2023-04-05T15:58:20.552Z,37.60
2023-04-05T15:59:41.509Z,37.30
2023-04-05T16:01:02.065Z,37.20
2023-04-05T16:02:22.934Z,37.80
2023-04-05T16:03:43.661Z,37.40
2023-04-05T16:05:05.091Z,37.40
2023-04-05T16:06:25.445Z,37.30
2023-04-05T16:07:47.593Z,39.50
2023-04-05T16:09:08.229Z,43.00
2023-04-05T16:10:28.925Z,43.20
2023-04-05T16:11:49.751Z,44.20
2023-04-05T16:13:10.722Z,44.50
2023-04-05T16:14:31.241Z,44.20
2023-04-05T16:15:51.948Z,44.90
2023-04-05T16:17:12.678Z,45.10
2023-04-05T16:18:33.316Z,44.50
2023-04-05T16:19:56.449Z,44.80
2023-04-05T16:21:17.862Z,45.20
2023-04-05T16:22:38.196Z,45.80
2023-04-05T16:24:00.365Z,45.10
2023-04-05T16:25:20.976Z,45.00
2023-04-05T16:26:41.933Z,45.70
2023-04-05T16:28:02.750Z,45.70
2023-04-05T16:29:23.486Z,45.80
2023-04-05T16:30:45.621Z,45.80
2023-04-05T16:32:08.180Z,45.60
2023-04-05T16:33:28.820Z,46.20
2023-04-05T16:34:49.570Z,46.20
2023-04-05T16:36:10.282Z,46.20
2023-04-05T16:37:30.871Z,46.20
2023-04-05T16:38:51.419Z,46.90
2023-04-05T16:40:13.603Z,47.20
2023-04-05T16:41:34.701Z,47.80
2023-04-05T16:42:55.797Z,47.20
2023-04-05T16:44:16.373Z,47.90
2023-04-05T16:45:37.159Z,47.70
2023-04-05T16:46:57.709Z,48.60
2023-04-05T16:48:18.367Z,48.40
2023-04-05T16:49:38.905Z,48.90
2023-04-05T16:50:59.337Z,49.20
2023-04-05T16:52:19.928Z,48.50
2023-04-05T16:53:40.528Z,49.90
2023-04-05T16:55:01.082Z,49.80
2023-04-05T16:56:23.176Z,49.40
2023-04-05T16:57:43.620Z,48.50
2023-04-05T16:59:06.700Z,48.90
2023-04-05T17:00:28.747Z,48.30
2023-04-05T17:01:49.610Z,48.10
2023-04-05T17:03:10.712Z,48.30
2023-04-05T17:04:31.430Z,47.50
2023-04-05T17:05:52.206Z,48.00
2023-04-05T17:07:12.866Z,48.30
2023-04-05T17:08:33.603Z,49.10
2023-04-05T17:09:54.274Z,50.30
2023-04-05T17:11:14.960Z,50.30
2023-04-05T17:12:37.257Z,51.10
2023-04-05T17:13:58.172Z,50.30
2023-04-05T17:15:18.923Z,50.70
2023-04-05T17:16:39.652Z,50.90
2023-04-05T17:18:00.553Z,50.20
2023-04-05T17:19:21.321Z,50.60
2023-04-05T17:20:42.226Z,51.30
2023-04-05T17:22:02.653Z,51.20
2023-04-05T17:23:24.173Z,51.80
2023-04-05T17:24:45.081Z,52.60
2023-04-05T17:26:06.169Z,52.40
2023-04-05T17:27:26.853Z,52.10
2023-04-05T17:28:48.783Z,52.80
2023-04-05T17:30:10.133Z,52.90
2023-04-05T17:31:31.029Z,52.90
2023-04-05T17:32:51.903Z,52.20
2023-04-05T17:34:14.419Z,53.00